Time;durP1;ratioP1;P1;durP2;ratioP2;P2;SDS_P1;SDS_P2;PMS_P1;PMS_P2;Temp;Humidity;BMP_temperature;BMP_pressure;BME280_temperature;BME280_humidity;BME280_pressure;Samples;Min_cycle;Max_cycle;Signal;HPM_P1;HPM_P2
2021/10/03 00:03:48;;;;;;;20.13;13.37;;;;;;;14.78;70.58;100568.96;5174640;57;21162;-78
2021/10/03 00:08:56;;;;;;;19.60;12.10;;;;;;;14.70;70.58;100576.33;5174094;57;21162;-77
2021/10/03 00:14:03;;;;;;;21.40;11.97;;;;;;;14.63;70.44;100564.59;5174625;57;21166;-77
2021/10/03 00:19:09;;;;;;;16.70;12.47;;;;;;;14.63;70.36;100565.92;5175000;57;21541;-77
2021/10/03 00:24:15;;;;;;;26.27;13.40;;;;;;;14.63;70.33;100559.75;5173914;57;21520;-76
2021/10/03 00:29:23;;;;;;;20.90;11.83;;;;;;;14.56;70.38;100565.29;5175783;57;21157;-77
2021/10/03 00:34:29;;;;;;;19.67;12.80;;;;;;;14.48;70.27;100551.39;5175674;57;21153;-77
2021/10/03 00:39:35;;;;;;;16.60;12.17;;;;;;;14.41;70.34;100551.59;5174596;57;21166;-78
2021/10/03 00:44:41;;;;;;;21.17;11.87;;;;;;;14.30;70.41;100557.89;5172997;57;21142;-77
2021/10/03 00:49:46;;;;;;;20.10;12.80;;;;;;;14.23;70.47;100553.27;5150065;57;21152;-78
2021/10/03 00:54:53;;;;;;;16.17;10.73;;;;;;;14.15;70.54;100542.50;5076969;58;21234;-77
2021/10/03 00:59:59;;;;;;;18.30;11.73;;;;;;;14.11;70.50;100551.25;5077564;58;21156;-77
2021/10/03 01:05:08;;;;;;;18.03;11.17;;;;;;;14.08;70.62;100544.88;5077621;58;21645;-77
2021/10/03 01:10:22;;;;;;;17.73;11.07;;;;;;;14.01;70.66;100539.78;5077426;58;21487;-78
2021/10/03 01:15:27;;;;;;;18.07;11.63;;;;;;;13.94;70.88;100532.00;5077592;58;21172;-77
2021/10/03 01:20:35;;;;;;;14.57;10.63;;;;;;;13.86;70.74;100532.72;5077031;58;21208;-76
2021/10/03 01:25:48;;;;;;;17.47;11.50;;;;;;;13.78;70.89;100525.91;5078655;58;21507;-78
2021/10/03 01:30:56;;;;;;;18.40;11.63;;;;;;;13.70;70.86;100523.97;5076960;58;21215;-76
2021/10/03 01:36:05;;;;;;;11.23;8.20;;;;;;;13.65;70.85;100519.55;5076816;58;21499;-77
2021/10/03 01:41:09;;;;;;;14.43;8.07;;;;;;;13.63;70.72;100508.70;5077761;58;21105;-77
2021/10/03 01:46:16;;;;;;;15.37;8.97;;;;;;;13.66;70.63;100517.73;5077096;58;21229;-76
2021/10/03 01:51:25;;;;;;;14.57;8.33;;;;;;;13.66;70.54;100528.36;5121394;57;21161;-77
2021/10/03 01:56:32;;;;;;;14.63;10.13;;;;;;;13.63;70.25;100523.31;5160224;57;21717;-78
2021/10/03 02:01:44;;;;;;;12.47;8.90;;;;;;;13.58;70.27;100531.72;5160703;57;21218;-77
2021/10/03 02:06:53;;;;;;;19.73;9.40;;;;;;;13.55;70.01;100526.68;5160739;57;21615;-77
2021/10/03 02:12:01;;;;;;;13.90;8.50;;;;;;;13.46;69.92;100523.50;5161175;57;21851;-77
2021/10/03 02:17:07;;;;;;;18.17;8.50;;;;;;;13.35;69.98;100516.50;5161308;57;21154;-77
2021/10/03 02:22:14;;;;;;;18.17;8.70;;;;;;;13.26;70.12;100510.69;5160231;57;21177;-78
2021/10/03 02:27:20;;;;;;;16.23;8.27;;;;;;;13.23;70.15;100508.30;5117461;57;21530;-75
2021/10/03 02:32:26;;;;;;;21.23;8.90;;;;;;;13.19;70.18;100507.37;5150032;57;21123;-77
2021/10/03 02:37:31;;;;;;;13.37;7.93;;;;;;;13.17;70.19;100506.66;5150044;57;21537;-77
2021/10/03 02:42:38;;;;;;;9.37;7.13;;;;;;;13.15;70.23;100496.66;5150312;57;21217;-76
2021/10/03 02:47:44;;;;;;;10.10;7.43;;;;;;;13.17;70.07;100494.22;5150661;57;21194;-77
2021/10/03 02:52:50;;;;;;;11.60;7.23;;;;;;;13.18;70.09;100489.27;5081359;57;21672;-78
2021/10/03 02:57:56;;;;;;;12.67;8.67;;;;;;;13.18;70.12;100490.59;5067760;58;21215;-77
2021/10/03 03:03:02;;;;;;;11.40;7.73;;;;;;;13.15;70.06;100494.84;5067519;58;21819;-78
2021/10/03 03:08:07;;;;;;;28.83;8.20;;;;;;;13.13;70.11;100488.83;5069358;58;21199;-77
2021/10/03 03:13:13;;;;;;;16.30;7.50;;;;;;;13.09;70.12;100485.23;5070988;58;21657;-76
2021/10/03 03:18:20;;;;;;;15.03;8.67;;;;;;;13.01;70.20;100484.58;5070774;58;21227;-77
2021/10/03 03:23:25;;;;;;;22.33;7.83;;;;;;;12.92;70.34;100474.78;5070920;58;21211;-77
2021/10/03 03:28:31;;;;;;;17.40;7.67;;;;;;;12.88;70.58;100483.49;5071015;58;21164;-78
2021/10/03 03:33:38;;;;;;;13.93;7.77;;;;;;;12.89;70.73;100475.04;5069870;58;21113;-78
2021/10/03 03:38:45;;;;;;;16.87;7.63;;;;;;;12.91;70.64;100469.95;5070997;58;21159;-76
2021/10/03 03:43:51;;;;;;;13.20;7.87;;;;;;;12.92;70.70;100471.64;5069753;58;21179;-77
2021/10/03 03:48:57;;;;;;;15.30;8.10;;;;;;;12.91;70.75;100473.09;5074755;57;21168;-77
2021/10/03 03:54:03;;;;;;;12.30;7.40;;;;;;;12.88;70.80;100480.00;5160785;57;21286;-76
2021/10/03 03:59:09;;;;;;;10.33;6.17;;;;;;;12.87;70.77;100480.97;5162789;57;21175;-78
2021/10/03 04:04:15;;;;;;;14.87;7.53;;;;;;;12.88;70.83;100481.33;5162920;57;21604;-78
2021/10/03 04:09:22;;;;;;;20.97;8.20;;;;;;;12.88;70.84;100483.49;5164367;57;21187;-77
2021/10/03 04:14:28;;;;;;;14.67;7.17;;;;;;;12.91;70.74;100482.39;5161605;57;21592;-78
2021/10/03 04:19:34;;;;;;;11.70;6.83;;;;;;;12.95;70.66;100479.83;5162848;57;21190;-77
2021/10/03 04:24:40;;;;;;;14.20;8.00;;;;;;;13.00;70.51;100483.73;5163264;57;21213;-78
2021/10/03 04:29:46;;;;;;;19.47;7.97;;;;;;;13.01;70.41;100475.28;5159431;57;21730;-77
2021/10/03 04:34:52;;;;;;;13.03;7.60;;;;;;;13.00;70.36;100479.75;5170003;57;21154;-77
2021/10/03 04:39:58;;;;;;;7.77;6.47;;;;;;;12.97;70.33;100481.37;5174962;57;21174;-78
2021/10/03 04:45:04;;;;;;;13.17;8.20;;;;;;;12.96;70.43;100482.83;5175980;57;21178;-77
2021/10/03 04:50:12;;;;;;;10.43;8.47;;;;;;;12.87;70.49;100482.30;5150139;57;21693;-78
2021/10/03 04:55:17;;;;;;;8.50;6.87;;;;;;;12.75;70.64;100480.72;5019660;58;21171;-77
2021/10/03 05:00:23;;;;;;;11.63;7.03;;;;;;;12.66;70.80;100482.38;5016674;59;21523;-78
2021/10/03 05:05:29;;;;;;;16.33;8.37;;;;;;;12.62;71.05;100487.59;5015978;59;21198;-79
2021/10/03 05:10:35;;;;;;;12.20;7.80;;;;;;;12.53;71.16;100486.55;5016978;58;21224;-78
2021/10/03 05:15:43;;;;;;;15.63;8.80;;;;;;;12.46;71.37;100476.12;5017745;59;21167;-78
2021/10/03 05:20:48;;;;;;;13.03;8.97;;;;;;;12.35;71.60;100478.88;5017784;58;21210;-79
2021/10/03 05:25:54;;;;;;;10.97;7.57;;;;;;;12.23;71.90;100478.08;5017911;59;21640;-78
2021/10/03 05:31:00;;;;;;;14.57;7.87;;;;;;;12.15;72.29;100476.58;5018075;59;21199;-80
2021/10/03 05:36:07;;;;;;;17.50;8.40;;;;;;;12.11;72.45;100475.64;5017830;59;21561;-78
2021/10/03 05:41:13;;;;;;;11.57;7.70;;;;;;;12.08;72.55;100481.19;5018051;59;21179;-79
2021/10/03 05:46:19;;;;;;;13.47;8.37;;;;;;;12.06;72.81;100493.77;5018628;59;21116;-79
2021/10/03 05:51:26;;;;;;;11.13;7.33;;;;;;;12.02;72.85;100489.68;5024849;57;22166;-79
2021/10/03 05:56:34;;;;;;;14.07;7.27;;;;;;;11.97;73.39;100483.43;5158021;57;21111;-78
2021/10/03 06:01:39;;;;;;;14.60;8.20;;;;;;;11.98;73.28;100468.73;5157730;57;22171;-79
2021/10/03 06:06:45;;;;;;;13.83;7.97;;;;;;;12.04;73.40;100475.81;5150444;57;21115;-79
2021/10/03 06:11:51;;;;;;;13.93;8.50;;;;;;;12.11;73.66;100472.50;5151278;57;21158;-78
2021/10/03 06:16:57;;;;;;;15.00;7.83;;;;;;;12.13;73.34;100472.38;5162303;57;21549;-78
2021/10/03 06:22:02;;;;;;;13.37;6.90;;;;;;;12.17;73.30;100460.55;5162137;57;21574;-78
2021/10/03 06:27:08;;;;;;;30.77;10.60;;;;;;;12.21;73.22;100462.81;5162229;57;21676;-78
2021/10/03 06:32:13;;;;;;;15.83;7.93;;;;;;;;;;5162197;57;21103;-78
2021/10/03 06:37:19;;;;;;;11.47;7.13;;;;;;;12.32;73.24;100472.02;5162592;57;21158;-78
2021/10/03 06:42:25;;;;;;;11.67;7.40;;;;;;;12.40;73.19;100478.45;5161859;57;21110;-77
2021/10/03 06:47:31;;;;;;;13.03;6.47;;;;;;;12.46;73.21;100482.77;5157220;57;22193;-78
2021/10/03 06:52:37;;;;;;;16.67;7.03;;;;;;;12.69;73.24;100490.05;5117534;57;21146;-78
2021/10/03 06:57:42;;;;;;;12.00;6.77;;;;;;;12.87;72.58;100491.59;5110765;57;21169;-79
2021/10/03 07:02:48;;;;;;;12.90;6.97;;;;;;;12.97;72.24;100495.13;5101580;57;21248;-78
2021/10/03 07:07:53;;;;;;;11.03;6.70;;;;;;;13.02;72.06;100496.88;5139528;57;21158;-78
2021/10/03 07:12:58;;;;;;;19.70;6.97;;;;;;;13.18;72.19;100504.36;5153225;57;21158;-79
2021/10/03 07:18:05;;;;;;;11.77;7.20;;;;;;;13.36;71.63;100500.07;5153149;57;21166;-77
2021/10/03 07:23:10;;;;;;;18.30;7.10;;;;;;;13.47;70.87;100484.48;5152883;57;21190;-77
2021/10/03 07:28:16;;;;;;;15.70;6.97;;;;;;;13.61;70.78;100486.24;5153095;57;21194;-78
2021/10/03 07:33:22;;;;;;;8.30;6.40;;;;;;;13.83;70.76;100486.47;5152889;57;21528;-77
2021/10/03 07:38:29;;;;;;;12.30;6.47;;;;;;;14.09;70.21;100474.75;5153661;57;21099;-79
2021/10/03 07:43:35;;;;;;;11.37;7.33;;;;;;;14.29;69.27;100476.89;5150162;57;21189;-78
2021/10/03 07:48:41;;;;;;;12.77;6.23;;;;;;;14.41;68.11;100475.76;5142106;57;21206;-78
2021/10/03 07:53:47;;;;;;;11.03;7.73;;;;;;;14.51;67.96;100465.95;5125816;57;21166;-78
2021/10/03 07:58:52;;;;;;;13.93;6.83;;;;;;;14.73;68.16;100466.89;5171440;57;21181;-78
2021/10/03 08:03:58;;;;;;;15.93;7.03;;;;;;;15.00;67.90;100463.87;5170077;57;21520;-76
2021/10/03 08:09:05;;;;;;;7.53;5.77;;;;;;;15.19;66.74;100457.60;5174740;57;21600;-77
2021/10/03 08:14:10;;;;;;;10.43;5.97;;;;;;;15.36;67.03;100456.30;5174930;57;21630;-77
2021/10/03 08:19:16;;;;;;;19.07;7.07;;;;;;;15.57;66.12;100453.38;5173353;57;21162;-77
2021/10/03 08:24:22;;;;;;;14.30;6.57;;;;;;;15.77;66.14;100450.86;5175135;57;21158;-78
2021/10/03 08:29:27;;;;;;;11.80;6.77;;;;;;;15.98;65.24;100450.54;5144853;57;21162;-77
2021/10/03 08:34:33;;;;;;;9.57;6.33;;;;;;;16.16;63.82;100442.50;5174711;57;21192;-77
2021/10/03 08:39:39;;;;;;;12.93;6.40;;;;;;;16.35;63.21;100444.94;5173868;57;21211;-76
2021/10/03 08:44:47;;;;;;;12.10;6.90;;;;;;;16.52;62.90;100440.03;5173942;57;21103;-77
2021/10/03 08:49:57;;;;;;;13.63;6.73;;;;;;;16.67;61.95;100442.12;5165357;57;21650;-77
2021/10/03 08:55:03;;;;;;;8.20;6.13;;;;;;;16.79;62.21;100448.38;5169740;57;21158;-76
2021/10/03 09:00:21;;;;;;;15.63;7.67;;;;;;;16.98;61.46;100445.09;5160716;57;21157;-76
2021/10/03 09:05:35;;;;;;;11.00;7.07;;;;;;;17.10;60.92;100446.48;5118832;57;21192;-77
2021/10/03 09:10:52;;;;;;;9.63;6.30;;;;;;;17.24;59.53;100443.18;5161464;57;21102;-76
2021/10/03 09:16:15;;;;;;;13.00;7.47;;;;;;;17.35;60.34;100439.34;5161219;57;21182;-83
2021/10/03 09:21:38;;;;;;;10.57;7.17;;;;;;;17.61;61.55;100449.90;5162043;57;21517;-85
2021/10/03 09:27:08;;;;;;;12.40;7.23;;;;;;;17.80;59.66;100439.75;5162804;57;21166;-83
2021/10/03 09:32:21;;;;;;;10.63;7.03;;;;;;;17.77;59.12;100440.08;5138142;57;22101;-82
2021/10/03 09:37:32;;;;;;;16.03;10.33;;;;;;;17.86;59.22;100444.45;5161508;57;21091;-83
2021/10/03 09:42:42;;;;;;;13.17;8.33;;;;;;;18.02;59.39;100424.86;5160749;57;21797;-84
2021/10/03 09:48:04;;;;;;;30.13;20.20;;;;;;;18.15;58.88;100418.98;5152092;57;21193;-85
2021/10/03 09:53:10;;;;;;;36.87;33.03;;;;;;;18.15;57.67;100421.16;5143117;57;22666;-86
2021/10/03 09:58:18;;;;;;;31.90;22.77;;;;;;;18.04;58.03;100408.11;5118234;57;21114;-85
2021/10/03 10:03:25;;;;;;;43.50;23.50;;;;;;;17.96;58.88;100410.81;5153602;57;21142;-85
2021/10/03 10:08:33;;;;;;;67.90;23.30;;;;;;;17.92;59.23;100410.30;5153147;57;21259;-81
2021/10/03 10:13:40;;;;;;;17.00;6.80;;;;;;;17.96;59.27;100410.81;5153969;57;22584;-81
2021/10/03 10:18:46;;;;;;;15.87;7.00;;;;;;;18.03;58.10;100406.94;5153121;57;21201;-80
2021/10/03 10:23:52;;;;;;;31.57;12.63;;;;;;;18.15;58.57;100406.94;5152115;57;21194;-82
2021/10/03 10:28:58;;;;;;;18.73;8.57;;;;;;;18.36;58.70;100395.16;5151786;57;21588;-82
2021/10/03 10:34:05;;;;;;;21.63;9.07;;;;;;;18.64;56.88;100388.08;5153126;57;21186;-82
2021/10/03 10:39:16;;;;;;;182.50;99.77;;;;;;;18.87;56.33;100382.25;5153397;57;21194;-81
2021/10/03 10:44:31;;;;;;;112.57;59.27;;;;;;;18.97;55.51;100382.34;5152505;57;22419;-84
2021/10/03 10:49:53;;;;;;;47.83;23.83;;;;;;;18.98;56.14;100374.64;5152266;57;21183;-83
2021/10/03 10:55:08;;;;;;;37.30;19.90;;;;;;;19.16;55.22;100379.72;5150046;57;21190;-84
2021/10/03 11:00:25;;;;;;;12.47;7.03;;;;;;;19.41;56.29;100364.28;5162407;57;21612;-85
2021/10/03 11:05:45;;;;;;;11.33;6.15;;;;;;;19.59;54.60;100357.30;5163685;57;21425;-84
2021/10/03 11:11:09;;;;;;;10.23;6.45;;;;;;;19.76;53.83;100360.66;5162427;57;21181;-84
2021/10/03 11:16:43;;;;;;;16.60;7.33;;;;;;;19.88;53.04;100353.83;5163627;57;21870;-84
2021/10/03 11:21:57;;;;;;;16.02;6.67;;;;;;;20.02;54.05;100358.38;5167696;57;21476;-83
2021/10/03 11:27:19;;;;;;;12.45;6.45;;;;;;;20.14;52.88;100348.04;5168386;57;21505;-83
2021/10/03 11:32:32;;;;;;;10.93;7.25;;;;;;;20.23;51.54;100356.31;5167888;57;21300;-83
2021/10/03 11:37:41;;;;;;;26.40;15.70;;;;;;;20.36;53.46;100351.98;5167739;57;21182;-83
2021/10/03 11:42:59;;;;;;;28.27;13.48;;;;;;;20.57;52.92;100349.05;5166535;57;21256;-84
2021/10/03 11:48:08;;;;;;;17.52;8.75;;;;;;;20.79;51.53;100340.00;5167695;57;21217;-84
2021/10/03 11:53:21;;;;;;;19.32;11.90;;;;;;;20.97;51.19;100342.27;5167563;57;21142;-86
2021/10/03 11:58:27;;;;;;;;;;;;;;;21.14;51.41;100343.69;5179164;57;21145;-84
2021/10/03 12:03:34;;;;;;;72.80;53.35;;;;;;;21.39;51.28;100338.27;5176285;57;20195;-83
2021/10/03 12:08:40;;;;;;;13.08;8.50;;;;;;;21.52;50.60;100332.70;5174323;57;21194;-83
2021/10/03 12:14:06;;;;;;;15.30;7.53;;;;;;;21.60;50.06;100335.23;5176462;57;21158;-83
2021/10/03 12:19:11;;;;;;;18.32;7.40;;;;;;;21.66;50.41;100334.47;5092605;58;21173;-81
2021/10/03 12:24:17;;;;;;;13.20;7.03;;;;;;;21.69;49.77;100347.00;5152687;57;21253;-83
2021/10/03 12:29:25;;;;;;;11.03;7.20;;;;;;;21.67;49.17;100340.17;5176444;57;21157;-83
2021/10/03 12:34:38;;;;;;;10.30;5.95;;;;;;;21.77;48.54;100336.62;5165728;57;21466;-82
2021/10/03 12:39:53;;;;;;;11.22;5.62;;;;;;;21.84;48.24;100333.47;5165773;57;21560;-88
2021/10/03 12:45:01;;;;;;;14.28;6.60;;;;;;;21.94;48.13;100331.25;5165360;57;21122;-85
2021/10/03 12:50:09;;;;;;;14.30;5.87;;;;;;;21.90;48.33;100332.67;5156344;57;21197;-83
2021/10/03 12:55:14;;;;;;;21.40;6.67;;;;;;;21.89;48.03;100321.58;5164133;57;21189;-84
2021/10/03 13:00:20;;;;;;;16.07;6.30;;;;;;;21.90;47.81;100327.80;5134313;57;21116;-85
2021/10/03 13:05:26;;;;;;;13.45;6.30;;;;;;;21.93;48.14;100324.20;5150034;57;21193;-84
2021/10/03 13:10:31;;;;;;;12.00;6.80;;;;;;;;;;5167640;57;21205;-84
2021/10/03 13:15:37;;;;;;;10.60;6.35;;;;;;;22.05;48.52;100317.26;5167796;57;21190;-84
2021/10/03 13:20:43;;;;;;;14.47;7.05;;;;;;;22.06;47.95;100313.53;5167487;57;21115;-86
2021/10/03 13:25:49;;;;;;;10.45;6.00;;;;;;;22.10;48.90;100309.94;5167371;57;21170;-84
2021/10/03 13:30:56;;;;;;;8.50;6.33;;;;;;;22.13;48.01;100313.59;5167574;57;22564;-85
2021/10/03 13:36:03;;;;;;;16.90;7.40;;;;;;;22.06;48.24;100312.70;5165876;57;21220;-85
2021/10/03 13:41:09;;;;;;;13.80;7.67;;;;;;;22.02;48.29;100318.99;5166842;57;21186;-84
2021/10/03 13:46:15;;;;;;;13.83;6.78;;;;;;;21.96;48.03;100321.63;5167252;57;21265;-84
2021/10/03 13:51:20;;;;;;;15.13;6.45;;;;;;;22.02;49.23;100325.73;5122536;57;21263;-84
2021/10/03 13:56:26;;;;;;;9.75;6.67;;;;;;;22.06;48.96;100314.88;5083522;58;21199;-87
2021/10/03 14:01:32;;;;;;;15.00;8.18;;;;;;;22.08;48.51;100319.56;5070708;58;21267;-84
2021/10/03 14:06:38;;;;;;;14.35;8.28;;;;;;;21.97;48.41;100314.70;5069167;58;21155;-86
2021/10/03 14:11:43;;;;;;;15.50;7.47;;;;;;;21.98;48.48;100318.23;5069310;58;21206;-85
2021/10/03 14:16:49;;;;;;;14.58;7.75;;;;;;;22.04;49.64;100320.98;5068112;58;21198;-83
2021/10/03 14:21:54;;;;;;;14.93;6.83;;;;;;;22.14;49.04;100325.20;5070009;57;21181;-82
2021/10/03 14:27:00;;;;;;;15.38;7.58;;;;;;;22.14;48.78;100317.11;5070110;57;21193;-84
2021/10/03 14:32:07;;;;;;;8.98;6.87;;;;;;;22.04;48.70;100322.84;5070202;58;21182;-85
2021/10/03 14:37:13;;;;;;;11.80;6.33;;;;;;;21.98;48.98;100322.27;5070634;58;21193;-86
2021/10/03 14:42:19;;;;;;;13.55;6.62;;;;;;;21.90;49.43;100325.10;5079652;57;21126;-87
2021/10/03 14:47:24;;;;;;;17.00;8.10;;;;;;;21.83;49.30;100318.34;5142991;57;21131;-84
2021/10/03 14:52:30;;;;;;;14.43;8.00;;;;;;;21.79;49.46;100321.11;5081157;57;21208;-85
2021/10/03 14:57:36;;;;;;;13.45;7.10;;;;;;;21.76;49.85;100328.22;5059849;58;21543;-82
2021/10/03 15:02:42;;;;;;;14.95;9.43;;;;;;;21.76;50.40;100329.56;5083408;58;21192;-82
2021/10/03 15:07:48;;;;;;;11.83;7.62;;;;;;;21.81;51.13;100327.64;5083521;58;21228;-83
2021/10/03 15:12:54;;;;;;;14.78;6.67;;;;;;;21.80;49.99;100325.97;5082904;58;21639;-87
2021/10/03 15:17:59;;;;;;;13.45;8.05;;;;;;;21.82;50.46;100328.80;5082036;58;21145;-83
2021/10/03 15:23:05;;;;;;;13.08;7.65;;;;;;;21.78;50.80;100320.78;5082050;58;21267;-82
2021/10/03 15:28:12;;;;;;;11.70;6.60;;;;;;;21.73;50.79;100326.75;5159884;57;21169;-82
2021/10/03 15:33:17;;;;;;;10.80;7.37;;;;;;;21.64;51.03;100330.62;5166494;57;21254;-84
2021/10/03 15:38:23;;;;;;;13.85;8.95;;;;;;;21.58;51.46;100333.25;5166902;57;21191;-83
2021/10/03 15:43:29;;;;;;;10.95;7.58;;;;;;;22.04;51.79;100335.79;5166879;57;21493;-82
2021/10/03 15:48:37;;;;;;;13.43;7.65;;;;;;;22.49;50.74;100334.88;5166997;57;21901;-84
2021/10/03 15:53:42;;;;;;;15.93;9.75;;;;;;;23.14;50.20;100338.34;5166115;57;21107;-83
2021/10/03 15:58:48;;;;;;;15.08;8.38;;;;;;;23.22;49.91;100338.64;5165012;57;22263;-82
2021/10/03 16:03:54;;;;;;;13.45;7.53;;;;;;;22.65;49.34;100345.31;5165676;57;21506;-83
2021/10/03 16:09:00;;;;;;;10.50;8.18;;;;;;;21.99;50.42;100361.16;5164442;57;21186;-82
2021/10/03 16:14:05;;;;;;;11.12;8.18;;;;;;;21.50;51.52;100367.05;5166272;57;21619;-82
2021/10/03 16:19:11;;;;;;;29.55;17.10;;;;;;;21.15;52.35;100363.36;5167630;57;21205;-82
2021/10/03 16:24:17;;;;;;;38.05;16.27;;;;;;;20.90;53.04;100360.20;5167441;57;21170;-83
2021/10/03 16:29:22;;;;;;;21.70;12.07;;;;;;;20.67;53.56;100361.16;5167405;57;21263;-83
2021/10/03 16:34:30;;;;;;;19.67;10.00;;;;;;;20.55;54.07;100364.02;5119087;57;21133;-82
2021/10/03 16:39:35;;;;;;;16.70;8.05;;;;;;;20.38;54.39;100363.89;5082779;58;21181;-83
2021/10/03 16:44:44;;;;;;;21.05;9.23;;;;;;;20.23;54.76;100354.47;5082291;58;21433;-85
2021/10/03 16:49:50;;;;;;;15.95;10.32;;;;;;;20.10;55.18;100370.39;5083393;58;21209;-84
2021/10/03 16:54:55;;;;;;;22.50;10.28;;;;;;;19.92;55.64;100366.71;5084016;58;21221;-83
2021/10/03 17:00:01;;;;;;;26.82;11.20;;;;;;;19.77;56.18;100377.09;5083529;58;21916;-83
2021/10/03 17:05:07;;;;;;;12.35;9.70;;;;;;;19.61;56.63;100384.27;5158025;57;21228;-82
2021/10/03 17:10:13;;;;;;;18.98;8.45;;;;;;;19.51;56.94;100397.61;5165645;57;21623;-83
2021/10/03 17:15:19;;;;;;;24.80;12.37;;;;;;;19.43;57.25;100389.08;5166976;57;21181;-83
2021/10/03 17:20:25;;;;;;;23.38;11.20;;;;;;;19.32;57.50;100377.44;5157744;57;21174;-80
2021/10/03 17:25:32;;;;;;;19.42;11.03;;;;;;;19.22;57.73;100384.89;5157554;57;21257;-81
2021/10/03 17:30:38;;;;;;;18.70;10.00;;;;;;;19.11;58.02;100387.45;5167371;57;21201;-84
2021/10/03 17:35:44;;;;;;;19.12;9.83;;;;;;;18.95;58.33;100393.75;5167230;57;21182;-84
2021/10/03 17:40:50;;;;;;;15.60;9.18;;;;;;;18.85;58.73;100390.46;5157368;56;21204;-82
2021/10/03 17:45:56;;;;;;;18.35;8.48;;;;;;;18.76;58.98;100405.42;5147576;57;21126;-82
2021/10/03 17:51:02;;;;;;;14.60;9.30;;;;;;;18.68;59.17;100400.92;5165665;57;21174;-81
2021/10/03 17:56:08;;;;;;;23.10;12.95;;;;;;;18.64;59.36;100402.27;5165569;57;21185;-85
2021/10/03 18:01:14;;;;;;;18.25;11.35;;;;;;;18.56;59.61;100400.45;5163594;57;21221;-81
2021/10/03 18:06:20;;;;;;;31.93;20.68;;;;;;;18.44;59.85;100400.50;5153290;57;21286;-84
2021/10/03 18:11:26;;;;;;;22.37;11.40;;;;;;;18.36;60.16;100406.36;5092714;57;22500;-85
2021/10/03 18:16:46;;;;;;;;;;;;;;;;;;;;;
2021/10/03 18:22:14;;;;;;;;;;;;;;;;;;;;;
2021/10/03 18:27:30;;;;;;;;;;;;;;;;;;;;;
2021/10/03 18:32:46;;;;;;;16.07;9.77;;;;;;;17.96;61.43;100397.94;5085941;57;21186;-84
2021/10/03 18:38:02;;;;;;;20.30;10.30;;;;;;;17.85;61.60;100401.30;5113062;57;21197;-84
2021/10/03 18:43:04;;;;;;;16.60;9.30;;;;;;;17.80;61.95;100401.46;5152150;57;21178;-85
2021/10/03 18:48:11;;;;;;;15.07;9.90;;;;;;;17.70;62.16;100394.12;5153633;57;21659;-84
2021/10/03 18:53:23;;;;;;;20.47;9.70;;;;;;;17.61;62.47;100401.26;5153677;57;21170;-85
2021/10/03 18:58:30;;;;;;;11.63;8.47;;;;;;;17.50;62.83;100403.77;5153381;57;21127;-84
2021/10/03 19:03:38;;;;;;;16.87;9.30;;;;;;;17.44;62.99;100408.94;5161469;57;21225;-84
2021/10/03 19:08:44;;;;;;;18.00;9.53;;;;;;;17.38;63.23;100407.78;5166988;57;21488;-80
2021/10/03 19:13:50;;;;;;;15.63;9.50;;;;;;;17.30;63.44;100405.58;5166945;57;21142;-83
2021/10/03 19:19:00;;;;;;;20.87;9.30;;;;;;;17.21;63.83;100398.91;5166180;57;21185;-83
2021/10/03 19:24:15;;;;;;;14.70;9.80;;;;;;;17.15;64.42;100402.72;5158547;57;22505;-85
2021/10/03 19:29:20;;;;;;;15.70;10.43;;;;;;;17.06;64.61;100407.72;5114164;57;21126;-84
2021/10/03 19:34:36;;;;;;;;;;;;;;;;;;;;;
2021/10/03 19:39:34;;;;;;;17.40;10.47;;;;;;;16.89;65.19;100413.52;5162335;57;21738;-84
2021/10/03 19:44:40;;;;;;;16.23;10.40;;;;;;;16.77;65.93;100405.47;5166845;57;21189;-84
2021/10/03 19:49:45;;;;;;;13.77;8.80;;;;;;;16.65;66.52;100408.91;5167169;57;21251;-84
2021/10/03 19:54:51;;;;;;;16.80;10.13;;;;;;;16.59;66.74;100414.03;5167057;57;21118;-79
2021/10/03 19:59:56;;;;;;;16.03;9.40;;;;;;;16.55;67.18;100409.50;5173243;57;21211;-78
2021/10/03 20:05:03;;;;;;;13.93;9.30;;;;;;;16.51;67.46;100400.97;5166076;57;21161;-76
2021/10/03 20:10:13;;;;;;;18.17;9.80;;;;;;;16.46;67.61;100399.30;5152858;57;21710;-81
2021/10/03 20:15:18;;;;;;;17.13;10.13;;;;;;;16.42;67.87;100395.27;5113394;57;21521;-79
2021/10/03 20:20:24;;;;;;;16.87;10.20;;;;;;;16.38;68.27;100392.57;5125915;57;21430;-78
2021/10/03 20:25:29;;;;;;;23.47;9.60;;;;;;;16.32;68.08;100400.39;5149884;57;21158;-79
2021/10/03 20:30:40;;;;;;;15.97;9.70;;;;;;;16.29;68.66;100404.22;5143145;57;21213;-79
2021/10/03 20:35:43;;;;;;;13.77;10.17;;;;;;;16.27;68.68;100412.88;5121639;57;21174;-82
2021/10/03 20:40:50;;;;;;;14.53;10.23;;;;;;;16.26;68.88;100417.87;5119164;57;21647;-82
2021/10/03 20:45:57;;;;;;;16.13;9.27;;;;;;;16.23;68.72;100422.67;5136985;57;21157;-82
2021/10/03 20:51:03;;;;;;;14.33;9.93;;;;;;;16.18;69.11;100430.68;5160443;57;21441;-82
2021/10/03 20:56:09;;;;;;;21.93;9.60;;;;;;;16.11;68.97;100423.45;5161402;57;21161;-82
2021/10/03 21:01:14;;;;;;;14.07;10.20;;;;;;;16.05;69.08;100426.73;5161572;57;21608;-82
2021/10/03 21:06:20;;;;;;;72.93;35.27;;;;;;;16.00;69.16;100426.38;5172863;57;21458;-81
2021/10/03 21:11:26;;;;;;;21.23;14.80;;;;;;;15.95;69.27;100423.33;5173759;57;21211;-82
2021/10/03 21:16:32;;;;;;;44.83;34.67;;;;;;;15.86;70.05;100422.95;5145029;57;21158;-82
2021/10/03 21:21:39;;;;;;;18.00;11.63;;;;;;;15.73;70.21;100429.52;5175737;57;21102;-82
2021/10/03 22:02:31;;;;;;;20.10;10.80;;;;;;;15.21;72.64;100420.99;4765977;61;21250;-81
2021/10/03 22:30:47;;;;;;;;;;;;;;;;;;;;;
2021/10/03 22:35:52;;;;;;;23.27;10.67;;;;;;;14.90;73.96;100426.66;4858915;59;21223;-81
2021/10/03 22:41:02;;;;;;;18.50;13.00;;;;;;;14.93;74.09;100438.34;4934931;59;21715;-81
2021/10/03 22:46:09;;;;;;;17.73;11.27;;;;;;;14.93;74.04;100450.33;4938078;59;21237;-81
2021/10/03 22:51:16;;;;;;;22.30;12.03;;;;;;;14.94;73.91;100460.50;4940118;59;22085;-81
2021/10/03 22:56:22;;;;;;;19.97;11.23;;;;;;;14.86;74.31;100457.22;4943342;59;21169;-81
2021/10/03 23:01:28;;;;;;;19.80;12.00;;;;;;;14.80;74.52;100451.17;4943353;59;21180;-81
2021/10/03 23:06:34;;;;;;;22.93;12.60;;;;;;;14.71;75.64;100446.23;4876231;59;22220;-81
2021/10/03 23:11:41;;;;;;;20.63;11.97;;;;;;;14.65;75.31;100466.80;4943539;59;21177;-81
2021/10/03 23:16:46;;;;;;;21.70;11.90;;;;;;;14.61;74.90;100465.90;4935796;59;21595;-81
2021/10/03 23:21:54;;;;;;;24.93;11.40;;;;;;;14.59;74.82;100455.39;4942106;59;21123;-81
2021/10/03 23:27:14;;;;;;;;;;;;;;;;;;;;;
2021/10/03 23:32:34;;;;;;;19.87;11.37;;;;;;;14.70;74.72;100471.66;4826645;61;21268;-81
2021/10/03 23:37:45;;;;;;;;;;;;;;;;;;;;;
2021/10/03 23:43:24;;;;;;;;;;;;;;;;;;;;;
2021/10/03 23:59:49;;;;;;;22.17;12.70;;;;;;;14.73;74.92;100479.36;5427560;54;21149;-82
